Time;durP1;ratioP1;P1;durP2;ratioP2;P2;SDS_P1;SDS_P2;PMS_P1;PMS_P2;Temp;Humidity;BMP_temperature;BMP_pressure;BME280_temperature;BME280_humidity;BME280_pressure;Samples;Min_cycle;Max_cycle;Signal;HPM_P1;HPM_P2
2023/01/03 00:01:06;;;;;;;3.20;1.30;;;14.60;35.80;;;;;;5007929;28;20460;-76
2023/01/03 00:03:31;;;;;;;3.00;1.10;;;14.40;35.70;;;;;;5010305;28;20189;-72
2023/01/03 00:05:57;;;;;;;3.10;1.23;;;14.70;36.70;;;;;;5005657;28;20521;-72
2023/01/03 00:08:23;;;;;;;3.10;1.20;;;14.20;36.90;;;;;;5009893;28;20225;-72
2023/01/03 00:10:48;;;;;;;3.17;1.30;;;14.20;36.60;;;;;;5006608;28;20209;-72
2023/01/03 00:13:14;;;;;;;3.20;1.30;;;14.30;37.00;;;;;;5010226;28;20225;-72
2023/01/03 00:15:39;;;;;;;3.10;1.20;;;14.20;36.80;;;;;;5007967;28;20184;-72
2023/01/03 00:18:05;;;;;;;3.10;1.30;;;14.60;37.80;;;;;;5008998;28;20191;-72
2023/01/03 00:20:33;;;;;;;3.10;1.20;;;14.60;36.90;;;;;;5010270;28;20186;-73
2023/01/03 00:22:59;;;;;;;3.10;1.17;;;14.50;36.60;;;;;;5010209;28;20181;-73
2023/01/03 00:25:25;;;;;;;3.07;1.17;;;14.40;36.40;;;;;;5010635;28;20420;-75
2023/01/03 00:27:51;;;;;;;3.10;1.10;;;14.30;36.30;;;;;;5008221;28;20536;-72
2023/01/03 00:30:16;;;;;;;3.03;1.10;;;14.50;36.30;;;;;;5011081;28;20436;-74
2023/01/03 00:32:42;;;;;;;3.20;1.20;;;14.20;36.30;;;;;;5007694;28;20220;-72
2023/01/03 00:35:08;;;;;;;3.10;1.20;;;14.10;36.20;;;;;;5010064;28;20177;-72
2023/01/03 00:37:34;;;;;;;3.17;1.27;;;14.20;36.30;;;;;;5010516;28;20543;-72
2023/01/03 00:39:59;;;;;;;3.10;1.17;;;14.00;36.10;;;;;;5009974;28;20462;-72
2023/01/03 00:42:25;;;;;;;3.00;1.10;;;14.10;36.60;;;;;;5009681;28;20232;-75
2023/01/03 00:44:50;;;;;;;3.20;1.20;;;13.70;37.10;;;;;;5010715;28;20170;-72
2023/01/03 00:47:16;;;;;;;3.10;1.20;;;14.00;37.60;;;;;;5014012;28;20184;-72
2023/01/03 00:49:41;;;;;;;3.03;1.10;;;14.10;36.20;;;;;;5008997;28;20209;-72
2023/01/03 00:52:07;;;;;;;3.10;1.20;;;14.40;36.00;;;;;;5013653;28;20202;-75
2023/01/03 00:54:32;;;;;;;3.07;1.10;;;14.20;35.00;;;;;;5009789;28;20209;-72
2023/01/03 00:56:58;;;;;;;3.20;1.30;;;14.30;34.80;;;;;;5014377;28;20173;-72
2023/01/03 00:59:25;;;;;;;3.10;1.20;;;14.20;35.20;;;;;;5012362;28;20716;-72
2023/01/03 01:01:54;;;;;;;3.00;1.10;;;14.10;36.20;;;;;;5014372;28;20177;-72
2023/01/03 01:04:24;;;;;;;3.10;1.20;;;14.10;36.20;;;;;;5013101;28;20460;-73
2023/01/03 01:06:52;;;;;;;3.10;1.27;;;14.50;34.70;;;;;;5012399;28;20459;-73
2023/01/03 01:09:22;;;;;;;3.03;1.10;;;14.60;34.10;;;;;;5010730;28;20527;-75
2023/01/03 01:11:48;;;;;;;3.00;1.10;;;14.40;33.70;;;;;;5012527;28;20821;-74
2023/01/03 01:14:21;;;;;;;3.23;1.30;;;14.50;33.40;;;;;;5013512;28;20466;-76
2023/01/03 01:16:48;;;;;;;3.10;1.20;;;14.20;35.20;;;;;;5010773;28;20468;-72
2023/01/03 01:19:14;;;;;;;3.10;1.20;;;14.40;36.50;;;;;;5010780;28;20957;-74
2023/01/03 01:21:40;;;;;;;3.10;1.20;;;14.40;36.40;;;;;;5013830;28;20923;-74
2023/01/03 01:24:05;;;;;;;3.07;1.10;;;14.10;35.80;;;;;;5014034;28;20424;-72
2023/01/03 01:26:31;;;;;;;3.00;1.10;;;14.10;34.40;;;;;;5012603;28;20188;-72
2023/01/03 01:28:56;;;;;;;3.20;1.23;;;14.20;36.30;;;;;;5013971;28;20169;-72
2023/01/03 01:31:24;;;;;;;3.10;1.20;;;13.90;36.00;;;;;;5011246;28;20216;-73
2023/01/03 01:33:51;;;;;;;3.50;1.40;;;14.00;35.40;;;;;;5013402;28;20213;-72
2023/01/03 01:36:26;;;;;;;3.10;1.20;;;14.50;34.90;;;;;;5012095;28;20435;-73
2023/01/03 01:38:55;;;;;;;3.17;1.20;;;14.00;36.10;;;;;;5002736;28;20815;-75
2023/01/03 01:46:51;;;;;;;3.10;1.20;;;14.10;35.00;;;;;;5012866;28;20451;-74
2023/01/03 01:49:24;;;;;;;3.20;1.40;;;14.60;34.50;;;;;;5012857;28;20412;-72
2023/01/03 01:51:50;;;;;;;3.03;1.13;;;14.50;34.40;;;;;;5010251;28;20843;-72
2023/01/03 01:54:16;;;;;;;3.10;1.30;;;14.30;35.20;;;;;;5012927;28;20456;-72
2023/01/03 01:56:46;;;;;;;3.20;1.33;;;14.20;34.80;;;;;;5011975;28;20589;-71
2023/01/03 01:59:12;;;;;;;3.20;1.30;;;14.10;35.00;;;;;;5010740;28;20502;-72
2023/01/03 02:01:40;;;;;;;3.00;1.10;;;14.10;34.70;;;;;;5012317;28;20444;-72
2023/01/03 02:04:25;;;;;;;3.00;1.10;;;14.10;34.90;;;;;;5009080;28;20489;-72
2023/01/03 02:06:51;;;;;;;3.10;1.20;;;13.70;35.80;;;;;;5013088;28;20915;-73
2023/01/03 02:09:17;;;;;;;3.10;1.30;;;13.40;38.90;;;;;;5009207;28;20989;-73
2023/01/03 02:14:58;;;;;;;3.00;1.20;;;13.10;37.90;;;;;;5011567;28;20211;-72
2023/01/03 02:17:29;;;;;;;3.00;1.10;;;13.10;37.80;;;;;;5012247;28;20760;-72
2023/01/03 02:20:18;;;;;;;3.00;1.20;;;13.20;37.60;;;;;;5009559;28;21006;-72
2023/01/03 02:22:59;;;;;;;3.00;1.20;;;13.50;36.40;;;;;;5005822;28;20424;-73
2023/01/03 02:25:45;;;;;;;3.30;1.30;;;13.60;36.10;;;;;;5010159;28;20443;-72
2023/01/03 02:28:48;;;;;;;3.07;1.20;;;13.80;35.80;;;;;;5004781;28;20427;-72
2023/01/03 02:31:52;;;;;;;3.10;1.20;;;13.70;35.40;;;;;;5009390;28;20451;-74
2023/01/03 02:34:49;;;;;;;3.10;1.20;;;13.60;35.70;;;;;;4995024;28;20471;-75
2023/01/03 02:37:21;;;;;;;3.00;1.20;;;13.60;35.70;;;;;;4993137;28;20424;-74
2023/01/03 02:40:00;;;;;;;3.10;1.17;;;13.50;35.60;;;;;;5011824;28;20436;-71
2023/01/03 02:42:57;;;;;;;3.03;1.20;;;13.70;36.40;;;;;;5010149;28;20432;-72
2023/01/03 02:45:35;;;;;;;3.00;1.20;;;13.90;36.00;;;;;;5011284;28;20444;-72
2023/01/03 02:48:04;;;;;;;3.00;1.10;;;13.90;35.70;;;;;;5010148;28;20914;-72
2023/01/03 02:50:44;;;;;;;3.13;1.30;;;14.00;35.20;;;;;;5010167;28;20552;-75
2023/01/03 02:53:14;;;;;;;3.00;1.10;;;14.00;35.80;;;;;;5010873;28;20463;-72
2023/01/03 02:55:42;;;;;;;3.03;1.17;;;13.60;36.50;;;;;;5011265;28;20528;-71
2023/01/03 02:58:19;;;;;;;3.00;1.20;;;13.70;38.00;;;;;;5004735;28;20483;-71
2023/01/03 03:00:48;;;;;;;3.00;1.10;;;13.50;38.70;;;;;;5011369;28;20440;-72
2023/01/03 03:03:18;;;;;;;3.00;1.10;;;13.10;38.50;;;;;;5010520;28;20827;-73
2023/01/03 03:05:55;;;;;;;2.90;1.10;;;13.30;38.10;;;;;;5008212;28;20478;-71
2023/01/03 03:08:20;;;;;;;3.00;1.10;;;13.30;37.60;;;;;;5010612;28;20546;-75
2023/01/03 03:13:51;;;;;;;3.00;1.10;;;13.10;39.40;;;;;;5009826;28;20211;-72
2023/01/03 03:16:46;;;;;;;2.97;1.10;;;12.90;39.50;;;;;;5009565;28;20437;-72
2023/01/03 03:24:48;;;;;;;3.07;1.23;;;13.10;38.70;;;;;;5011642;28;20424;-71
2023/01/03 03:24:56;;;;;;;3.00;1.20;;;13.20;38.00;;;;;;5005728;28;21123;-72
2023/01/03 03:30:13;;;;;;;3.10;1.20;;;13.60;36.90;;;;;;5012030;28;20451;-72
2023/01/03 03:32:42;;;;;;;3.00;1.20;;;13.30;37.50;;;;;;5011298;28;20471;-71
2023/01/03 03:35:13;;;;;;;3.00;1.10;;;13.20;38.80;;;;;;5007988;28;20448;-72
2023/01/03 03:37:41;;;;;;;3.00;1.20;;;13.20;38.60;;;;;;5011754;28;20452;-72
2023/01/03 03:46:01;;;;;;;2.93;1.10;;;12.80;38.80;;;;;;5003968;28;20861;-71
2023/01/03 03:49:36;;;;;;;2.97;1.17;;;12.50;39.50;;;;;;5008828;28;20440;-71
2023/01/03 03:51:26;;;;;;;3.00;1.20;;;12.80;39.90;;;;;;5010503;28;20558;-74
2023/01/03 03:53:53;;;;;;;2.97;1.10;;;12.70;39.70;;;;;;5011503;28;20502;-72
2023/01/03 03:56:27;;;;;;;3.10;1.30;;;12.90;39.10;;;;;;5009603;28;20447;-72
2023/01/03 03:58:57;;;;;;;2.90;1.10;;;13.30;38.70;;;;;;5010708;28;20438;-71
2023/01/03 04:01:25;;;;;;;2.90;1.10;;;12.90;39.60;;;;;;5011305;28;20495;-72
2023/01/03 04:03:54;;;;;;;3.20;1.40;;;13.20;39.60;;;;;;5011133;28;20470;-71
2023/01/03 04:06:23;;;;;;;3.10;1.23;;;12.80;39.50;;;;;;5009659;28;20472;-76
2023/01/03 04:08:48;;;;;;;2.90;1.10;;;12.80;39.50;;;;;;5010329;28;20428;-72
2023/01/03 04:11:14;;;;;;;3.50;1.57;;;13.00;39.00;;;;;;5007697;28;20701;-73
2023/01/03 04:13:40;;;;;;;2.90;1.20;;;13.20;38.70;;;;;;5011190;28;20204;-71
2023/01/03 04:16:06;;;;;;;2.90;1.10;;;13.00;39.20;;;;;;5009604;28;20731;-72
2023/01/03 04:18:32;;;;;;;2.90;1.17;;;13.10;38.90;;;;;;5008301;28;20177;-72
2023/01/03 04:20:58;;;;;;;3.10;1.30;;;13.30;38.40;;;;;;5011415;28;20452;-74
2023/01/03 04:23:24;;;;;;;3.00;1.20;;;13.60;38.00;;;;;;5013222;28;20502;-72
2023/01/03 04:25:50;;;;;;;2.80;1.10;;;13.10;37.80;;;;;;5011417;28;20696;-77
2023/01/03 04:28:16;;;;;;;3.00;1.30;;;13.10;38.60;;;;;;5012197;28;20196;-72
2023/01/03 04:30:43;;;;;;;2.93;1.20;;;13.20;38.10;;;;;;5014913;28;20428;-78
2023/01/03 04:33:09;;;;;;;2.87;1.10;;;13.30;37.80;;;;;;5015108;28;20628;-72
2023/01/03 04:35:35;;;;;;;2.90;1.10;;;13.20;38.10;;;;;;5013550;28;20463;-72
2023/01/03 04:38:02;;;;;;;2.90;1.10;;;13.20;38.20;;;;;;5012979;28;20177;-72
2023/01/03 04:40:27;;;;;;;2.90;1.10;;;13.20;37.80;;;;;;5005700;28;20435;-72
2023/01/03 04:45:38;;;;;;;3.00;1.23;;;13.00;38.80;;;;;;5012898;28;20723;-71
2023/01/03 04:48:04;;;;;;;3.43;1.40;;;13.20;38.10;;;;;;5011307;28;20444;-72
2023/01/03 04:50:30;;;;;;;2.93;1.10;;;13.10;38.30;;;;;;5013663;28;20216;-74
2023/01/03 04:52:56;;;;;;;2.90;1.10;;;13.20;38.20;;;;;;5013969;28;20568;-72
2023/01/03 04:55:21;;;;;;;2.90;1.10;;;13.50;39.40;;;;;;5014119;28;20412;-72
2023/01/03 04:57:47;;;;;;;3.00;1.20;;;13.60;38.50;;;;;;5014082;28;20212;-75
2023/01/03 05:00:13;;;;;;;3.30;1.33;;;13.20;38.60;;;;;;5012227;28;20255;-72
2023/01/03 05:02:39;;;;;;;3.43;1.40;;;13.10;38.40;;;;;;5014188;28;20177;-72
2023/01/03 05:05:06;;;;;;;2.90;1.10;;;13.30;39.50;;;;;;5013084;28;20579;-72
2023/01/03 05:07:32;;;;;;;2.90;1.10;;;12.80;40.00;;;;;;5012204;28;20543;-75
2023/01/03 05:09:57;;;;;;;3.00;1.30;;;12.90;40.40;;;;;;5011747;28;21058;-72
2023/01/03 05:12:23;;;;;;;2.90;1.10;;;13.10;39.10;;;;;;5014029;28;20415;-73
2023/01/03 05:14:49;;;;;;;2.90;1.20;;;13.00;39.50;;;;;;5014048;28;20240;-72
2023/01/03 05:17:16;;;;;;;2.90;1.10;;;13.20;39.50;;;;;;5011427;28;20505;-72
2023/01/03 05:27:56;;;;;;;3.73;1.23;;;13.20;39.10;;;;;;5012593;28;20502;-73
2023/01/03 05:30:21;;;;;;;2.97;1.20;;;13.60;38.90;;;;;;5011607;28;20547;-72
2023/01/03 05:32:47;;;;;;;3.83;1.70;;;13.40;40.00;;;;;;5012761;28;20507;-72
2023/01/03 05:35:13;;;;;;;2.97;1.20;;;13.10;39.30;;;;;;5013686;28;20409;-73
2023/01/03 05:37:38;;;;;;;3.00;1.30;;;13.10;38.90;;;;;;5011692;28;20185;-74
2023/01/03 05:40:04;;;;;;;3.03;1.30;;;13.10;39.00;;;;;;5012236;28;20189;-72
2023/01/03 05:42:30;;;;;;;2.90;1.10;;;13.00;39.40;;;;;;5011855;28;20190;-72
2023/01/03 05:44:55;;;;;;;2.87;1.10;;;13.30;40.00;;;;;;5013479;28;20428;-72
2023/01/03 05:47:21;;;;;;;2.90;1.10;;;13.50;39.80;;;;;;5013601;28;20179;-72
2023/01/03 05:49:46;;;;;;;3.37;1.43;;;13.40;41.00;;;;;;5009002;28;20696;-75
2023/01/03 05:52:12;;;;;;;3.00;1.30;;;13.20;39.90;;;;;;5009238;28;20181;-72
2023/01/03 05:54:38;;;;;;;3.10;1.30;;;13.60;39.50;;;;;;5009714;28;20220;-72
2023/01/03 05:57:03;;;;;;;3.07;1.37;;;13.30;38.60;;;;;;5013504;28;20177;-72
2023/01/03 05:59:29;;;;;;;3.00;1.20;;;13.10;39.50;;;;;;5011163;28;20201;-73
2023/01/03 06:01:54;;;;;;;3.00;1.23;;;13.00;39.80;;;;;;5009387;28;20178;-72
2023/01/03 06:04:20;;;;;;;3.30;1.50;;;13.40;39.40;;;;;;5013019;28;20263;-73
2023/01/03 06:06:45;;;;;;;2.90;1.20;;;12.90;39.80;;;;;;5012827;28;20178;-72
2023/01/03 06:09:11;;;;;;;2.83;1.10;;;13.10;40.60;;;;;;5012853;28;20181;-74
2023/01/03 06:11:39;;;;;;;3.40;1.60;;;12.70;40.50;;;;;;5009096;28;20250;-72
2023/01/03 06:14:04;;;;;;;2.90;1.20;;;13.30;40.70;;;;;;5008629;28;20211;-72
2023/01/03 06:19:14;;;;;;;2.80;1.20;;;13.10;39.10;;;;;;5012674;28;20184;-72
2023/01/03 06:21:40;;;;;;;2.80;1.10;;;12.70;39.60;;;;;;5011571;28;20189;-72
2023/01/03 06:24:06;;;;;;;2.80;1.20;;;12.60;40.30;;;;;;5011098;28;20703;-72
2023/01/03 06:26:32;;;;;;;2.80;1.20;;;12.70;40.20;;;;;;5012713;28;20177;-72
2023/01/03 06:28:58;;;;;;;3.20;1.40;;;13.30;39.80;;;;;;5012815;28;20416;-71
2023/01/03 06:31:23;;;;;;;2.90;1.30;;;12.80;40.20;;;;;;5011117;28;20189;-75
2023/01/03 06:33:49;;;;;;;3.37;1.70;;;12.90;39.90;;;;;;5009762;28;20478;-72
2023/01/03 06:36:17;;;;;;;3.20;1.50;;;12.80;39.60;;;;;;5010726;28;20181;-71
2023/01/03 06:38:43;;;;;;;2.90;1.30;;;13.30;39.70;;;;;;5011731;28;20228;-71
2023/01/03 06:41:09;;;;;;;2.80;1.10;;;12.90;39.60;;;;;;5011250;28;20779;-72
2023/01/03 06:43:35;;;;;;;2.87;1.20;;;12.80;40.50;;;;;;5011631;28;20408;-72
2023/01/03 06:54:26;;;;;;;2.80;1.20;;;12.80;40.40;;;;;;5003581;28;21073;-75
2023/01/03 06:56:52;;;;;;;3.40;1.50;;;13.00;40.80;;;;;;5007517;28;20552;-72
2023/01/03 06:59:19;;;;;;;2.70;1.10;;;12.80;41.40;;;;;;5007906;28;20449;-75
2023/01/03 07:01:46;;;;;;;2.80;1.10;;;13.00;40.60;;;;;;5012055;28;20412;-74
2023/01/03 07:04:12;;;;;;;2.80;1.20;;;12.70;40.40;;;;;;5011995;28;20412;-72
2023/01/03 07:06:38;;;;;;;3.47;1.50;;;11.80;39.70;;;;;;5009803;28;20527;-72
2023/01/03 07:09:04;;;;;;;2.80;1.13;;;13.10;40.30;;;;;;5011598;28;20435;-71
2023/01/03 07:11:30;;;;;;;2.73;1.10;;;10.90;38.50;;;;;;5010516;28;21444;-73
2023/01/03 07:13:58;;;;;;;2.70;1.10;;;12.70;40.20;;;;;;5011659;28;20459;-72
2023/01/03 07:16:28;;;;;;;2.80;1.23;;;13.30;40.60;;;;;;5011553;28;20692;-72
2023/01/03 07:18:54;;;;;;;2.70;1.20;;;13.10;40.50;;;;;;5007611;28;20455;-72
2023/01/03 07:21:20;;;;;;;2.80;1.10;;;12.30;41.00;;;;;;5010970;28;20451;-74
2023/01/03 07:23:46;;;;;;;2.80;1.20;;;12.40;41.20;;;;;;5011670;28;20188;-72
2023/01/03 07:26:12;;;;;;;2.80;1.23;;;12.40;41.00;;;;;;5010206;28;20436;-71
2023/01/03 07:28:37;;;;;;;2.80;1.20;;;12.30;40.80;;;;;;5006782;28;20238;-72
2023/01/03 07:31:05;;;;;;;2.80;1.20;;;12.10;41.50;;;;;;5011305;28;20615;-75
2023/01/03 07:33:32;;;;;;;2.70;1.20;;;12.10;41.80;;;;;;5011268;28;20232;-72
2023/01/03 07:36:02;;;;;;;2.70;1.10;;;12.40;41.60;;;;;;5008344;28;20637;-72
2023/01/03 07:38:28;;;;;;;2.95;1.45;;;12.40;40.60;;;;;;5009454;28;20185;-75
2023/01/03 07:40:59;;;;;;;2.70;1.10;;;12.60;40.40;;;;;;5009680;28;20656;-72
2023/01/03 07:43:37;;;;;;;3.00;1.42;;;12.30;40.20;;;;;;5000018;28;20195;-72
2023/01/03 07:46:19;;;;;;;2.60;1.10;;;12.20;41.20;;;;;;5011432;28;20173;-75
2023/01/03 07:48:47;;;;;;;2.90;1.40;;;11.90;42.00;;;;;;5010980;28;20203;-74
2023/01/03 07:51:14;;;;;;;2.60;1.10;;;11.70;42.80;;;;;;5011259;28;20201;-72
2023/01/03 07:53:41;;;;;;;2.70;1.20;;;11.80;43.10;;;;;;5010168;28;20313;-77
2023/01/03 07:56:08;;;;;;;2.80;1.20;;;12.00;42.60;;;;;;5011513;28;20188;-71
2023/01/03 07:58:35;;;;;;;2.72;1.27;;;11.90;42.40;;;;;;5014660;28;20181;-72
2023/01/03 08:01:25;;;;;;;2.58;1.15;;;11.70;42.60;;;;;;5015051;28;20200;-73
2023/01/03 08:03:51;;;;;;;2.57;1.10;;;11.60;43.60;;;;;;5010767;28;20285;-73
2023/01/03 08:06:19;;;;;;;2.63;1.20;;;11.40;44.60;;;;;;5009881;28;20518;-73
2023/01/03 08:13:16;;;;;;;2.80;1.30;;;11.40;45.00;;;;;;5015676;28;20439;-73
2023/01/03 08:14:15;;;;;;;2.60;1.10;;;11.80;43.90;;;;;;5015582;28;20200;-76
2023/01/03 08:16:41;;;;;;;2.67;1.20;;;11.90;43.60;;;;;;5010789;28;20185;-77
2023/01/03 08:19:06;;;;;;;2.73;1.27;;;11.70;44.10;;;;;;5016929;28;20185;-79
2023/01/03 08:21:32;;;;;;;2.77;1.33;;;11.80;44.40;;;;;;5017852;28;20181;-74
2023/01/03 08:23:57;;;;;;;2.90;1.50;;;11.70;44.00;;;;;;5019754;28;20192;-72
2023/01/03 08:26:23;;;;;;;2.60;1.20;;;11.60;44.20;;;;;;5025536;28;20192;-72
2023/01/03 08:28:48;;;;;;;2.60;1.20;;;11.40;44.40;;;;;;5022824;28;20180;-76
2023/01/03 08:31:20;;;;;;;2.70;1.30;;;11.20;45.10;;;;;;5022311;28;20744;-72
2023/01/03 08:33:58;;;;;;;2.60;1.13;;;11.30;45.20;;;;;;5017888;28;20215;-72
2023/01/03 08:36:25;;;;;;;2.65;1.13;;;11.50;45.30;;;;;;5025161;28;20184;-74
2023/01/03 08:38:59;;;;;;;3.30;1.57;;;11.80;44.60;;;;;;5016230;28;20181;-75
2023/01/03 08:41:27;;;;;;;2.67;1.10;;;11.70;44.50;;;;;;5029097;28;20434;-78
2023/01/03 08:43:54;;;;;;;3.20;1.40;;;11.60;45.60;;;;;;5025831;28;20432;-75
2023/01/03 08:46:20;;;;;;;3.00;1.50;;;11.50;46.50;;;;;;5030513;28;20773;-73
2023/01/03 08:48:46;;;;;;;2.80;1.37;;;11.30;46.70;;;;;;5016554;28;20439;-73
2023/01/03 08:51:11;;;;;;;2.70;1.10;;;11.20;47.00;;;;;;5022058;28;20809;-73
2023/01/03 08:53:37;;;;;;;2.70;1.10;;;11.20;47.60;;;;;;5027498;28;20558;-77
2023/01/03 08:56:03;;;;;;;2.70;1.10;;;11.50;47.10;;;;;;5010565;28;20265;-74
2023/01/03 08:58:28;;;;;;;2.73;1.13;;;11.70;45.90;;;;;;5022017;28;20223;-73
2023/01/03 09:00:54;;;;;;;3.10;1.50;;;11.70;45.80;;;;;;5029532;28;20203;-74
2023/01/03 09:03:19;;;;;;;2.90;1.40;;;11.80;45.80;;;;;;5019249;28;20182;-77
2023/01/03 09:05:45;;;;;;;3.40;1.30;;;11.50;47.10;;;;;;5022236;28;20189;-76
2023/01/03 09:08:11;;;;;;;2.90;1.23;;;11.50;47.30;;;;;;5012929;28;20194;-73
2023/01/03 09:10:38;;;;;;;3.70;1.60;;;11.50;47.10;;;;;;5012063;28;20239;-73
2023/01/03 09:13:04;;;;;;;3.87;1.93;;;11.40;47.10;;;;;;5008138;28;20677;-76
2023/01/03 09:15:29;;;;;;;3.03;1.40;;;11.40;47.50;;;;;;5011977;28;20442;-72
2023/01/03 09:17:55;;;;;;;3.10;1.50;;;11.30;49.50;;;;;;5006732;28;20181;-72
2023/01/03 09:20:21;;;;;;;2.77;1.17;;;11.40;48.30;;;;;;5008993;28;20252;-75
2023/01/03 09:22:47;;;;;;;2.90;1.30;;;11.00;48.70;;;;;;5007789;28;20232;-74
2023/01/03 09:25:14;;;;;;;3.50;1.70;;;11.20;48.80;;;;;;5001576;28;20224;-75
2023/01/03 09:27:46;;;;;;;2.90;1.30;;;11.60;47.10;;;;;;5018346;28;21151;-73
2023/01/03 09:30:13;;;;;;;2.90;1.20;;;11.60;47.20;;;;;;5012368;28;20447;-72
2023/01/03 09:32:38;;;;;;;2.90;1.30;;;11.40;46.80;;;;;;5012052;28;20459;-75
2023/01/03 09:35:04;;;;;;;2.87;1.17;;;11.60;46.70;;;;;;5021782;28;20809;-73
2023/01/03 09:37:30;;;;;;;2.87;1.17;;;12.00;45.50;;;;;;5019925;28;20256;-73
2023/01/03 09:39:56;;;;;;;2.90;1.20;;;12.40;43.90;;;;;;5015494;28;20439;-72
2023/01/03 09:45:19;;;;;;;3.10;1.37;;;12.30;45.00;;;;;;5016426;28;20180;-74
2023/01/03 09:47:45;;;;;;;2.87;1.10;;;12.80;42.60;;;;;;5024184;28;20494;-76
2023/01/03 09:50:26;;;;;;;3.40;1.67;;;13.00;41.60;;;;;;5020661;28;20911;-73
2023/01/03 10:04:53;;;;;;;3.50;1.47;;;12.80;41.10;;;;;;5004159;28;20430;-76
2023/01/03 10:07:40;;;;;;;3.07;1.20;;;13.30;40.20;;;;;;5013690;28;20439;-73
2023/01/03 10:10:26;;;;;;;3.03;1.17;;;13.20;40.30;;;;;;5011616;28;20877;-73
2023/01/03 10:13:19;;;;;;;3.00;1.20;;;13.30;40.20;;;;;;5012225;28;20436;-77
2023/01/03 10:16:11;;;;;;;3.00;1.20;;;13.40;39.10;;;;;;5013449;28;21078;-73
2023/01/03 10:19:07;;;;;;;3.00;1.23;;;13.00;40.10;;;;;;5017622;28;20788;-73
2023/01/03 10:22:09;;;;;;;3.10;1.30;;;13.10;40.10;;;;;;5016209;28;20409;-73
2023/01/03 10:24:59;;;;;;;3.03;1.20;;;13.20;40.00;;;;;;5008553;28;20529;-73
2023/01/03 10:27:26;;;;;;;3.00;1.17;;;12.90;40.20;;;;;;5008607;28;20436;-73
2023/01/03 10:29:59;;;;;;;3.30;1.50;;;12.90;40.60;;;;;;5011140;28;21106;-76
2023/01/03 10:32:33;;;;;;;3.07;1.20;;;12.80;42.20;;;;;;5011353;28;20432;-72
2023/01/03 10:35:02;;;;;;;5.63;2.40;;;12.40;42.80;;;;;;5012515;28;20467;-72
2023/01/03 10:37:28;;;;;;;3.03;1.20;;;12.60;42.80;;;;;;5012660;28;20401;-72
2023/01/03 10:40:04;;;;;;;3.10;1.30;;;12.30;42.60;;;;;;5012229;28;20821;-72
2023/01/03 10:42:32;;;;;;;3.70;1.67;;;12.20;43.30;;;;;;5010533;28;20433;-72
2023/01/03 10:45:13;;;;;;;3.00;1.20;;;11.90;45.20;;;;;;5012239;28;20450;-72
2023/01/03 10:47:38;;;;;;;3.20;1.30;;;11.80;45.70;;;;;;4992931;28;20912;-73
2023/01/03 10:50:05;;;;;;;3.20;1.47;;;12.10;44.00;;;;;;4992736;28;20548;-72
2023/01/03 10:52:39;;;;;;;3.77;1.60;;;11.90;45.50;;;;;;4992335;28;20212;-73
2023/01/03 10:55:14;;;;;;;3.00;1.27;;;11.70;46.50;;;;;;5010107;28;20502;-72
2023/01/03 10:57:56;;;;;;;3.50;1.60;;;12.30;44.40;;;;;;5012675;28;20539;-72
2023/01/03 11:00:27;;;;;;;2.90;1.07;;;13.10;42.10;;;;;;5010857;28;20447;-72
2023/01/03 11:02:55;;;;;;;3.40;1.40;;;12.90;41.50;;;;;;5012127;28;20393;-72
2023/01/03 11:05:24;;;;;;;3.03;1.17;;;12.80;41.60;;;;;;5010309;28;21011;-73
2023/01/03 11:08:03;;;;;;;3.03;1.20;;;12.40;42.40;;;;;;5013261;28;20426;-73
2023/01/03 11:10:55;;;;;;;3.10;1.23;;;13.30;40.50;;;;;;5012886;28;20444;-73
2023/01/03 11:13:38;;;;;;;3.10;1.30;;;14.00;36.70;;;;;;5012811;28;20459;-73
2023/01/03 11:16:14;;;;;;;3.60;1.60;;;13.70;38.00;;;;;;5010666;28;20494;-73
2023/01/03 11:18:40;;;;;;;3.00;1.20;;;13.80;38.20;;;;;;5012854;28;20443;-75
2023/01/03 11:21:15;;;;;;;3.30;1.40;;;14.20;36.30;;;;;;5012486;28;20446;-73
2023/01/03 11:24:23;;;;;;;3.00;1.20;;;14.70;35.50;;;;;;5012792;28;20517;-73
2023/01/03 11:27:08;;;;;;;3.40;1.40;;;14.70;36.70;;;;;;5010828;28;20444;-74
2023/01/03 11:29:58;;;;;;;3.10;1.30;;;14.10;36.20;;;;;;4992546;28;20430;-73
2023/01/03 11:32:56;;;;;;;3.03;1.23;;;14.00;37.60;;;;;;4992053;28;20868;-74
2023/01/03 11:35:36;;;;;;;3.00;1.23;;;14.30;36.30;;;;;;4916458;29;20449;-79
2023/01/03 11:38:12;;;;;;;3.10;1.30;;;14.70;34.50;;;;;;4937225;29;20498;-74
2023/01/03 11:40:46;;;;;;;3.60;1.93;;;14.50;34.50;;;;;;4951296;29;20542;-73
2023/01/03 11:43:45;;;;;;;4.27;1.63;;;13.90;36.00;;;;;;4952255;29;20767;-72
2023/01/03 11:46:22;;;;;;;3.10;1.33;;;14.10;36.20;;;;;;4951988;29;20843;-74
2023/01/03 11:48:47;;;;;;;2.97;1.17;;;14.00;35.50;;;;;;4950706;29;20421;-72
2023/01/03 11:51:43;;;;;;;3.10;1.30;;;14.20;35.40;;;;;;4951341;28;20454;-73
2023/01/03 11:54:44;;;;;;;3.00;1.17;;;14.70;34.20;;;;;;4963141;28;20208;-73
2023/01/03 11:57:41;;;;;;;3.00;1.13;;;14.60;34.80;;;;;;4949626;28;20478;-74
2023/01/03 12:00:30;;;;;;;3.00;1.20;;;14.60;34.60;;;;;;4955475;28;20545;-77
2023/01/03 12:03:01;;;;;;;3.03;1.30;;;15.50;33.00;;;;;;4953434;28;20438;-73
2023/01/03 12:05:58;;;;;;;3.00;1.20;;;16.40;29.70;;;;;;4957562;28;20454;-73
2023/01/03 12:08:45;;;;;;;3.20;1.37;;;15.90;30.60;;;;;;4850210;29;20446;-73
2023/01/03 12:11:27;;;;;;;3.20;1.40;;;16.80;30.00;;;;;;4901636;29;20482;-72
2023/01/03 12:14:15;;;;;;;3.00;1.30;;;17.50;29.00;;;;;;4930842;29;21040;-73
2023/01/03 12:17:05;;;;;;;3.10;1.37;;;16.80;28.80;;;;;;4924462;29;20551;-72
2023/01/03 12:19:55;;;;;;;3.10;1.30;;;15.50;30.80;;;;;;4921151;29;20467;-73
2023/01/03 12:22:25;;;;;;;3.00;1.20;;;14.90;32.30;;;;;;4928918;29;20942;-73
2023/01/03 12:25:20;;;;;;;3.10;1.40;;;15.00;32.10;;;;;;4929155;29;20471;-76
2023/01/03 12:27:55;;;;;;;3.10;1.30;;;15.10;32.30;;;;;;4924931;29;20581;-74
2023/01/03 12:30:53;;;;;;;3.00;1.20;;;16.00;29.80;;;;;;4928493;29;20559;-74
2023/01/03 12:33:52;;;;;;;3.20;1.40;;;15.30;30.80;;;;;;4909638;29;20615;-76
2023/01/03 12:36:45;;;;;;;3.10;1.30;;;15.40;30.00;;;;;;4930680;29;20502;-74
2023/01/03 12:39:35;;;;;;;3.20;1.40;;;15.60;29.90;;;;;;4932116;29;20431;-73
2023/01/03 12:42:24;;;;;;;3.20;1.37;;;16.30;28.50;;;;;;4931476;29;20462;-73
2023/01/03 12:44:59;;;;;;;3.20;1.37;;;16.60;28.70;;;;;;5000766;28;20589;-76
2023/01/03 12:47:57;;;;;;;3.07;1.37;;;16.40;29.00;;;;;;5004717;28;20440;-76
2023/01/03 12:50:35;;;;;;;3.10;1.40;;;16.50;28.60;;;;;;4962103;28;20470;-77
2023/01/03 12:53:10;;;;;;;3.07;1.33;;;17.10;28.10;;;;;;4962479;28;20442;-74
2023/01/03 12:56:03;;;;;;;2.93;1.20;;;17.30;27.90;;;;;;4952621;28;20969;-73
2023/01/03 12:58:49;;;;;;;3.20;1.40;;;15.80;28.40;;;;;;4958214;28;20444;-73
2023/01/03 13:01:28;;;;;;;3.10;1.20;;;15.30;29.70;;;;;;4958981;28;20478;-73
2023/01/03 13:04:05;;;;;;;3.50;1.40;;;16.20;28.20;;;;;;4959807;28;20448;-73
2023/01/03 13:06:38;;;;;;;3.20;1.30;;;16.50;27.50;;;;;;4953481;28;20442;-77
2023/01/03 13:09:15;;;;;;;3.20;1.30;;;16.70;27.20;;;;;;4939068;28;20443;-74
2023/01/03 13:11:53;;;;;;;3.87;1.63;;;16.50;27.40;;;;;;4955514;28;21137;-78
2023/01/03 13:14:20;;;;;;;3.30;1.40;;;16.20;27.50;;;;;;4953914;28;20478;-75
2023/01/03 13:16:48;;;;;;;3.10;1.20;;;15.20;27.80;;;;;;4944266;28;20442;-72
2023/01/03 13:19:22;;;;;;;3.57;1.70;;;14.10;29.90;;;;;;4956017;28;20497;-73
2023/01/03 13:21:53;;;;;;;3.13;1.30;;;13.80;30.70;;;;;;4946581;28;20434;-77
2023/01/03 13:24:37;;;;;;;3.27;1.40;;;13.50;31.00;;;;;;4951522;28;20447;-74
2023/01/03 13:29:52;;;;;;;3.10;1.20;;;13.90;30.30;;;;;;5012017;28;20520;-73
2023/01/03 13:32:21;;;;;;;3.13;1.33;;;13.90;30.40;;;;;;5005324;28;20446;-74
2023/01/03 13:34:52;;;;;;;3.60;1.30;;;14.30;29.90;;;;;;5004162;28;20628;-72
2023/01/03 13:37:38;;;;;;;3.20;1.30;;;15.00;29.00;;;;;;5010610;28;20440;-75
2023/01/03 13:40:24;;;;;;;4.73;1.60;;;15.30;28.10;;;;;;5008363;28;20453;-76
2023/01/03 13:43:05;;;;;;;3.33;1.43;;;15.70;27.90;;;;;;5009290;28;20438;-73
2023/01/03 13:45:30;;;;;;;3.20;1.30;;;15.80;27.40;;;;;;5006694;28;20490;-72
2023/01/03 13:47:56;;;;;;;3.30;1.33;;;16.40;27.00;;;;;;5007454;28;21355;-73
2023/01/03 13:50:26;;;;;;;3.07;1.17;;;16.60;26.80;;;;;;5012821;28;20205;-73
2023/01/03 13:53:00;;;;;;;3.30;1.30;;;16.90;26.50;;;;;;5012781;28;20450;-73
2023/01/03 13:55:58;;;;;;;4.63;1.57;;;17.10;26.40;;;;;;5027647;28;20436;-72
2023/01/03 13:58:25;;;;;;;3.70;1.57;;;17.20;25.60;;;;;;5012483;28;20527;-74
2023/01/03 14:00:56;;;;;;;3.47;1.37;;;16.90;26.00;;;;;;5013498;28;20487;-72
2023/01/03 14:03:31;;;;;;;3.50;1.30;;;16.40;26.50;;;;;;5013897;28;20503;-72
2023/01/03 14:06:14;;;;;;;3.77;1.43;;;16.00;27.00;;;;;;5013403;28;20419;-72
2023/01/03 14:08:39;;;;;;;3.40;1.23;;;16.00;27.40;;;;;;5010133;28;20439;-71
2023/01/03 14:11:21;;;;;;;3.50;1.30;;;15.50;27.80;;;;;;5012644;28;20821;-71
2023/01/03 14:13:50;;;;;;;3.30;1.20;;;14.80;29.00;;;;;;5013525;28;20197;-71
2023/01/03 14:16:26;;;;;;;3.20;1.10;;;14.50;30.60;;;;;;5013667;28;20425;-72
2023/01/03 14:19:05;;;;;;;4.70;1.67;;;14.20;31.00;;;;;;5011768;28;20486;-71